Data for 01/08/2009

Time Sea-Level Adjusted Pressure Absolute Pressure Temperature Relative Humidity Dew Point   
(mb) (inHg) (mb) (inHg) (C) (F) (%) (C) (F)
00:05 1010 29.83 839 24.78 7.6 45.7 50 -2.1 28.2
00:10 1010 29.83 839 24.78 8 46.4 50 -1.9 28.6
00:15 1010 29.83 839 24.78 7.8 46 52 -1.5 29.2
00:20 1010 29.83 839 24.78 7.6 45.7 51 -1.8 28.7
00:25 1010 29.83 839 24.78 7.6 45.7 52 -1.7 28.9
00:30 1010 29.83 839 24.78 7.5 45.6 52 -1.6 29.1
00:35 1010 29.83 839 24.78 7.5 45.4 52 -1.7 28.9
00:40 1010 29.83 839 24.78 7.5 45.4 52 -1.7 28.9
00:45 1010 29.83 839 24.78 7.5 45.5 52 -1.7 29
00:50 1009 29.8 839 24.78 7.6 45.7 52 -1.7 28.9
00:55 1010 29.83 839 24.78 7.7 45.9 51 -1.8 28.8
01:00 1010 29.83 839 24.78 7.9 46.2 50 -1.8 28.8
01:05 1009 29.8 839 24.78 8 46.4 50 -1.8 28.8
01:10 1009 29.8 839 24.78 8 46.5 50 -1.6 29.1
01:15 1009 29.8 839 24.78 8.1 46.6 49 -1.8 28.8
01:20 1009 29.8 838 24.75 8.2 46.8 50 -1.6 29.2
01:25 1009 29.8 838 24.75 7.9 46.3 51 -1.5 29.3
01:30 1009 29.8 838 24.75 8 46.5 50 -1.7 29
01:35 1009 29.8 838 24.75 8 46.5 51 -1.6 29.2
01:40 1009 29.8 838 24.75 8 46.3 50 -1.7 29
01:45 1008 29.77 838 24.75 8 46.4 51 -1.4 29.5
01:50 1009 29.8 838 24.75 7.9 46.2 51 -1.6 29.1
01:55 1009 29.8 838 24.75 8.1 46.5 50 -1.6 29.1
02:00 1009 29.8 838 24.75 8.2 46.7 50 -1.6 29.2
02:05 1009 29.8 838 24.75 8.1 46.6 51 -1.4 29.4
02:10 1009 29.8 838 24.75 8 46.4 52 -1.4 29.5
02:15 1009 29.8 838 24.75 8.1 46.5 52 -1.2 29.9
02:20 1009 29.8 838 24.75 7.8 46 54 -0.9 30.5
02:25 1009 29.8 838 24.75 7.6 45.7 54 -1 30.2
02:30 1009 29.8 838 24.75 7.7 45.8 54 -1.1 30.1
02:35 1009 29.8 838 24.75 7.7 45.9 54 -1.1 30.1
02:40 1009 29.8 838 24.75 7.6 45.7 54 -1 30.1
02:45 1009 29.8 838 24.75 7.7 45.8 52 -1.4 29.4
02:50 1009 29.8 838 24.75 7.9 46.2 52 -1.4 29.4
02:55 1009 29.8 838 24.75 7.9 46.2 52 -1.5 29.4
03:00 1009 29.8 838 24.75 7.9 46.2 52 -1.5 29.4
03:05 1009 29.8 838 24.75 7.9 46.2 51 -1.5 29.3
03:10 1009 29.8 838 24.75 7.9 46.2 51 -1.6 29.1
03:15 1009 29.8 838 24.75 8 46.4 50 -1.7 29
03:20 1009 29.8 838 24.75 8.1 46.5 51 -1.5 29.2
03:25 1009 29.8 838 24.75 7.9 46.3 51 -1.6 29.1
03:30 1009 29.8 838 24.75 7.9 46.2 51 -1.6 29.2
03:35 1009 29.8 838 24.75 8 46.4 51 -1.6 29.1
03:40 1009 29.8 838 24.75 8 46.4 49 -1.9 28.6
03:45 1008 29.77 838 24.75 8.2 46.8 49 -1.8 28.8
03:50 1008 29.77 838 24.75 8.1 46.6 49 -1.8 28.7
03:55 1008 29.77 837 24.72 8.1 46.7 50 -1.7 28.9
04:00 1008 29.77 837 24.72 8.1 46.6 49 -2.1 28.3
04:05 1008 29.77 837 24.72 8.4 47.2 48 -2 28.5
04:10 1008 29.77 837 24.72 8.4 47.2 48 -1.8 28.8
04:15 1008 29.77 837 24.72 8.4 47 49 -1.7 28.9
04:20 1008 29.77 837 24.72 8.3 46.9 49 -1.9 28.6
04:25 1008 29.77 837 24.72 8.2 46.8 49 -1.8 28.7
04:30 1008 29.77 837 24.72 8.3 46.9 49 -1.9 28.6
04:35 1008 29.77 837 24.72 8.4 47.1 49 -1.6 29.1
04:40 1008 29.77 837 24.72 8.1 46.6 51 -1.5 29.3
04:45 1008 29.77 837 24.72 7.9 46.2 51 -1.5 29.3
04:50 1008 29.77 837 24.72 7.8 46.1 51 -1.7 29
04:55 1008 29.77 837 24.72 8 46.4 51 -1.6 29.1
05:00 1008 29.77 837 24.72 7.9 46.3 50 -1.7 29
05:05 1008 29.77 837 24.72 8.1 46.6 50 -1.6 29.1
05:10 1008 29.77 837 24.72 8.1 46.5 50 -1.6 29.1
05:15 1008 29.77 837 24.72 8.1 46.5 50 -1.6 29.1
05:20 1008 29.77 837 24.72 8 46.4 51 -1.6 29.1
05:25 1008 29.77 837 24.72 8.1 46.5 50 -1.8 28.8
05:30 1008 29.77 837 24.72 8.1 46.6 49 -1.9 28.6
05:35 1008 29.77 837 24.72 8.3 47 49 -1.7 28.9
05:40 1008 29.77 837 24.72 8.4 47 48 -2 28.5
05:45 1008 29.77 837 24.72 8.6 47.5 48 -1.9 28.6
05:50 1008 29.77 837 24.72 8.6 47.5 47 -2 28.5
05:55 1008 29.77 837 24.72 8.7 47.7 47 -2 28.4
06:00 1008 29.77 837 24.72 8.9 47.9 47 -1.9 28.6
06:05 1007 29.74 837 24.72 8.8 47.8 47 -1.9 28.6
06:10 1007 29.74 837 24.72 8.7 47.6 48 -1.7 29
06:15 1007 29.74 836 24.69 8.6 47.4 47 -2 28.5
06:20 1007 29.74 836 24.69 8.7 47.7 46 -2.2 28
06:25 1007 29.74 836 24.69 8.9 48 45 -2.2 28
06:30 1007 29.74 836 24.69 8.9 48 46 -2 28.4
06:35 1007 29.74 836 24.69 8.6 47.5 47 -2 28.4
06:40 1007 29.74 836 24.69 8.8 47.8 46 -2.2 28.1
06:45 1007 29.74 836 24.69 9 48.2 45 -2.4 27.8
06:50 1007 29.74 836 24.69 9.1 48.4 45 -2.3 27.9
06:55 1007 29.74 836 24.69 9.2 48.5 44 -2.4 27.7
07:00 1007 29.74 836 24.69 9.2 48.6 44 -2.4 27.8
07:05 1007 29.74 836 24.69 9.2 48.6 44 -2.3 27.8
07:10 1007 29.74 836 24.69 9.4 49 42 -2.9 26.7
07:15 1007 29.74 836 24.69 9.8 49.6 42 -2.5 27.5
07:20 1007 29.74 836 24.69 9.5 49.1 43 -2.4 27.7
07:25 1007 29.74 836 24.69 9.2 48.6 43 -2.6 27.3
07:30 1007 29.74 836 24.69 9.3 48.8 43 -2.5 27.5
07:35 1006 29.71 836 24.69 9.2 48.6 43 -2.6 27.3
07:40 1006 29.71 836 24.69 9.3 48.8 44 -2.4 27.7
07:45 1006 29.71 836 24.69 9.2 48.6 43 -2.6 27.4
07:50 1006 29.71 836 24.69 9.1 48.4 44 -2.4 27.7
07:55 1006 29.71 835 24.66 8.9 48 45 -2.4 27.7
08:00 1006 29.71 835 24.66 8.8 47.8 45 -2.4 27.6
08:05 1006 29.71 835 24.66 8.7 47.6 45 -2.6 27.4
08:10 1006 29.71 835 24.66 8.8 47.8 45 -2.5 27.4
08:15 1006 29.71 835 24.66 8.9 47.9 44 -2.7 27.1
08:20 1006 29.71 835 24.66 9 48.2 43 -2.7 27.1
08:25 1006 29.71 835 24.66 9.1 48.4 43 -2.7 27.2
08:30 1006 29.71 835 24.66 9 48.2 44 -2.7 27.1
08:35 1006 29.71 835 24.66 9 48.2 43 -2.9 26.8
08:40 1006 29.71 835 24.66 9.2 48.5 42 -2.9 26.7
08:45 1006 29.71 835 24.66 9.3 48.7 43 -2.6 27.4
08:50 1006 29.71 835 24.66 9.3 48.7 42 -3 26.6
08:55 1006 29.71 835 24.66 9.3 48.7 43 -2.7 27.2
09:00 1006 29.71 835 24.66 9.1 48.4 43 -2.8 27
09:05 1005 29.68 835 24.66 9.2 48.5 42 -3 26.5
09:10 1005 29.68 835 24.66 9.2 48.5 43 -2.6 27.2
09:15 1005 29.68 834 24.63 8.9 48 44 -2.6 27.3
09:20 1005 29.68 834 24.63 8.8 47.8 44 -2.9 26.8
09:25 1005 29.68 834 24.63 8.8 47.8 44 -2.7 27.1
09:30 1005 29.68 834 24.63 8.8 47.8 43 -3 26.6
09:35 1005 29.68 834 24.63 9.2 48.6 41 -3.4 25.8
09:40 1005 29.68 834 24.63 9.6 49.3 40 -3.1 26.3
09:45 1005 29.68 834 24.63 9.7 49.5 39 -3.5 25.7
09:50 1005 29.68 834 24.63 9.8 49.6 40 -3.2 26.3
09:55 1005 29.68 834 24.63 9.5 49.1 41 -3 26.6
10:00 1005 29.68 834 24.63 9.6 49.3 40 -3.3 26.1
10:05 1005 29.68 834 24.63 9.7 49.4 41 -2.9 26.7
10:10 1005 29.68 834 24.63 9.5 49.1 42 -2.7 27.1
10:15 1005 29.68 834 24.63 9.5 49 41 -3.1 26.4
10:20 1005 29.68 834 24.63 9.5 49 42 -2.8 26.9
10:25 1005 29.68 834 24.63 9.3 48.8 41 -3.3 26
10:30 1005 29.68 834 24.63 9.5 49.1 40 -3.5 25.6
10:35 1005 29.68 834 24.63 9.8 49.7 38 -3.7 25.3
10:40 1005 29.68 834 24.63 9.9 49.7 39 -3.5 25.6
10:45 1005 29.68 834 24.63 9.9 49.8 39 -3.5 25.7
10:50 1005 29.68 834 24.63 9.7 49.4 39 -3.7 25.4
10:55 1005 29.68 834 24.63 9.6 49.3 41 -3 26.7
11:00 1005 29.68 834 24.63 9.3 48.8 42 -3 26.7
11:05 1005 29.68 834 24.63 9.1 48.4 43 -2.8 26.9
11:10 1005 29.68 834 24.63 8.9 48 43 -3.1 26.5
11:15 1005 29.68 834 24.63 9 48.1 43 -2.8 26.9
11:20 1005 29.68 834 24.63 8.8 47.8 43 -3.1 26.5
11:25 1005 29.68 834 24.63 8.8 47.9 43 -3.1 26.4
11:30 1005 29.68 834 24.63 8.8 47.9 43 -2.9 26.8
11:35 1005 29.68 834 24.63 8.7 47.7 44 -2.8 27
11:40 1005 29.68 834 24.63 8.6 47.5 45 -2.7 27.2
11:45 1005 29.68 834 24.63 8.5 47.2 46 -2.4 27.6
11:50 1005 29.68 834 24.63 8.3 47 46 -2.5 27.5
11:55 1005 29.68 834 24.63 8.3 46.9 47 -2.3 27.8
12:00 1005 29.68 834 24.63 8.2 46.7 47 -2.4 27.6
12:05 1005 29.68 834 24.63 8.3 46.9 47 -2.2 28
12:10 1005 29.68 834 24.63 8.2 46.8 48 -2.1 28.3
12:15 1005 29.68 834 24.63 8.2 46.7 49 -1.9 28.6
12:20 1005 29.68 834 24.63 8.1 46.5 49 -1.9 28.6
12:25 1005 29.68 834 24.63 8.1 46.5 49 -2 28.5
12:30 1005 29.68 834 24.63 8 46.5 49 -2 28.4
12:35 1005 29.68 834 24.63 7.9 46.3 51 -1.7 29
12:40 1005 29.68 834 24.63 7.8 46.1 50 -1.8 28.7
12:45 1005 29.68 834 24.63 7.8 46.1 51 -1.8 28.8
12:50 1005 29.68 834 24.63 7.9 46.3 50 -1.9 28.6
12:55 1005 29.68 834 24.63 7.9 46.2 50 -1.7 28.9
13:00 1005 29.68 834 24.63 7.8 46.1 51 -1.6 29.1
13:05 1005 29.68 834 24.63 7.7 45.9 51 -1.7 28.9
13:10 1005 29.68 834 24.63 7.7 45.9 51 -1.7 29
13:15 1005 29.68 834 24.63 7.6 45.6 52 -1.7 28.9
13:20 1005 29.68 834 24.63 7.7 45.8 51 -1.8 28.8
13:25 1005 29.68 834 24.63 7.8 46.1 50 -1.9 28.6
13:30 1005 29.68 834 24.63 8 46.3 51 -1.6 29
13:35 1005 29.68 834 24.63 8 46.3 51 -1.4 29.4
13:40 1005 29.68 834 24.63 7.8 46 52 -1.4 29.4
13:45 1005 29.68 834 24.63 7.6 45.6 52 -1.5 29.3
13:50 1005 29.68 834 24.63 7.4 45.4 52 -1.6 29
13:55 1005 29.68 834 24.63 7.6 45.7 53 -1.4 29.5
14:00 1005 29.68 834 24.63 7.2 44.9 55 -1.2 29.8
14:05 1005 29.68 834 24.63 6.8 44.3 56 -1.2 29.8
14:10 1005 29.68 834 24.63 6.5 43.8 57 -1.3 29.6
14:15 1005 29.68 834 24.63 6.7 44 56 -1.5 29.3
14:20 1005 29.68 834 24.63 7.1 44.7 55 -1.4 29.5
14:25 1005 29.68 834 24.63 7.2 44.9 55 -1.2 29.9
14:30 1005 29.68 834 24.63 7.3 45.2 55 -1.1 30.1
14:35 1005 29.68 834 24.63 7.4 45.3 55 -1 30.2
14:40 1005 29.68 834 24.63 7.5 45.6 54 -1.2 29.8
14:45 1005 29.68 834 24.63 7.6 45.8 51 -1.8 28.7
14:50 1005 29.68 834 24.63 7.6 45.6 53 -1.5 29.3
14:55 1005 29.68 834 24.63 7.3 45.2 53 -1.6 29.1
15:00 1005 29.68 834 24.63 7.1 44.9 54 -1.6 29.2
15:05 1005 29.68 834 24.63 7 44.6 53 -1.9 28.6
15:10 1005 29.68 834 24.63 7.2 45 53 -1.8 28.7
15:15 1005 29.68 834 24.63 7.4 45.3 53 -1.6 29.1
15:20 1005 29.68 834 24.63 7.2 45 53 -1.7 28.9
15:25 1005 29.68 834 24.63 6.9 44.4 55 -1.4 29.5
15:30 1005 29.68 834 24.63 6.6 44 56 -1.5 29.3
15:35 1005 29.68 834 24.63 6.4 43.5 58 -1.2 29.8
15:40 1005 29.68 835 24.66 6.2 43.1 58 -1.5 29.2
15:45 1005 29.68 835 24.66 6.1 43 58 -1.5 29.3
15:50 1005 29.68 835 24.66 6.1 43 58 -1.4 29.4
15:55 1005 29.68 835 24.66 5.9 42.7 60 -1.2 29.8
16:00 1005 29.68 835 24.66 5.8 42.5 61 -1.2 29.8
16:05 1006 29.71 835 24.66 5.9 42.6 61 -1.1 29.9
16:10 1006 29.71 835 24.66 5.7 42.2 62 -1 30.2
16:15 1006 29.71 835 24.66 5.5 42 62 -1.2 29.8
16:20 1006 29.71 835 24.66 5.6 42.1 62 -1.1 30
16:25 1006 29.71 835 24.66 5.6 42 62 -1.2 29.8
16:30 1006 29.71 835 24.66 5.5 41.8 64 -0.9 30.4
16:35 1006 29.71 836 24.69 5.2 41.3 65 -0.9 30.4
16:40 1007 29.74 836 24.69 4.8 40.7 64 -1.4 29.5
16:45 1007 29.74 836 24.69 4.2 39.6 72 -0.5 31.2
16:50 1007 29.74 836 24.69 3.5 38.2 73 -1 30.2
16:55 1007 29.74 836 24.69 3.7 38.6 67 -1.8 28.7
17:00 1007 29.74 836 24.69 3.3 38 75 -0.7 30.8
17:05 1007 29.74 836 24.69 2.8 37 77 -0.9 30.3
17:10 1007 29.74 836 24.69 2.8 37 75 -1.2 29.9
17:15 1007 29.74 836 24.69 2.7 36.8 77 -0.9 30.4
17:20 1007 29.74 837 24.72 2.4 36.4 79 -0.8 30.6
17:25 1008 29.77 837 24.72 2.4 36.3 79 -0.8 30.5
17:30 1008 29.77 837 24.72 2.4 36.3 80 -0.7 30.7
17:35 1008 29.77 837 24.72 2.4 36.3 79 -0.9 30.3
17:40 1008 29.77 837 24.72 2.4 36.4 76 -1.3 29.7
17:45 1008 29.77 837 24.72 2.7 36.8 75 -1.4 29.5
17:50 1008 29.77 837 24.72 2.7 36.9 75 -1.2 29.8
17:55 1008 29.77 837 24.72 2.7 36.9 73 -1.6 29.2
18:00 1008 29.77 837 24.72 2.8 37 73 -1.6 29.2
18:05 1008 29.77 837 24.72 2.9 37.1 72 -1.7 29
18:10 1008 29.77 837 24.72 3.1 37.5 68 -2.2 28.1
18:15 1008 29.77 837 24.72 3.2 37.7 67 -2.3 27.9
18:20 1008 29.77 838 24.75 3.3 37.9 63 -3 26.6
18:25 1009 29.8 838 24.75 3.5 38.4 60 -3.4 25.8
18:30 1009 29.8 838 24.75 3.7 38.6 62 -3 26.7
18:35 1009 29.8 838 24.75 3.5 38.4 69 -1.7 29
18:40 1009 29.8 838 24.75 3.2 37.7 72 -1.4 29.5
18:45 1009 29.8 838 24.75 3 37.4 71 -1.8 28.8
18:50 1009 29.8 838 24.75 3.1 37.6 66 -2.7 27.1
18:55 1009 29.8 838 24.75 3.2 37.8 65 -2.7 27.2
19:00 1009 29.8 838 24.75 3.3 37.9 67 -2.3 27.8
19:05 1009 29.8 838 24.75 3.2 37.7 66 -2.6 27.3
19:10 1009 29.8 839 24.78 3.4 38 65 -2.7 27.2
19:15 1009 29.8 839 24.78 3.3 37.9 65 -2.6 27.3
19:20 1010 29.83 839 24.78 3.4 38.1 62 -3.2 26.2
19:25 1010 29.83 839 24.78 3.5 38.3 60 -3.5 25.7
19:30 1010 29.83 839 24.78 3.5 38.2 62 -3.1 26.3
19:35 1010 29.83 839 24.78 3.3 37.9 64 -2.8 26.9
19:40 1010 29.83 839 24.78 2.9 37.3 65 -3 26.6
19:45 1010 29.83 839 24.78 2.6 36.7 69 -2.6 27.3
19:50 1010 29.83 839 24.78 2.4 36.3 69 -2.7 27.1
19:55 1010 29.83 839 24.78 2.3 36.2 69 -2.7 27.1
20:00 1010 29.83 839 24.78 2.4 36.3 63 -3.9 25
20:05 1010 29.83 839 24.78 2.7 36.9 62 -3.7 25.3
20:10 1010 29.83 839 24.78 2.9 37.2 59 -4.2 24.4
20:15 1010 29.83 839 24.78 3 37.4 58 -4.5 23.9
20:20 1010 29.83 839 24.78 3.1 37.5 58 -4.5 24
20:25 1010 29.83 839 24.78 3 37.3 59 -4.3 24.2
20:30 1010 29.83 839 24.78 2.8 37.1 61 -4 24.7
20:35 1010 29.83 839 24.78 2.7 36.9 61 -4 24.8
20:40 1010 29.83 839 24.78 2.7 36.8 62 -4 24.9
20:45 1010 29.83 839 24.78 2.6 36.8 61 -4.2 24.4
20:50 1010 29.83 839 24.78 2.7 36.8 62 -3.9 25
20:55 1010 29.83 839 24.78 2.6 36.6 63 -3.7 25.3
21:00 1010 29.83 839 24.78 2.4 36.3 63 -3.9 25
21:05 1010 29.83 839 24.78 2.3 36.2 63 -4 24.8
21:10 1010 29.83 839 24.78 2.3 36.1 63 -4.1 24.7
21:15 1010 29.83 839 24.78 2.4 36.3 60 -4.5 23.9
21:20 1010 29.83 840 24.81 2.4 36.4 59 -4.8 23.3
21:25 1011 29.85 840 24.81 2.5 36.4 55 -5.6 21.9
21:30 1011 29.85 840 24.81 2.6 36.7 54 -5.9 21.4
21:35 1011 29.85 840 24.81 2.7 36.8 53 -5.9 21.4
21:40 1011 29.85 840 24.81 2.6 36.6 58 -4.9 23.2
21:45 1011 29.85 840 24.81 2.5 36.4 58 -4.9 23.2
21:50 1011 29.85 840 24.81 2.4 36.4 58 -5.1 22.8
21:55 1011 29.85 840 24.81 2.4 36.4 58 -5.1 22.9
22:00 1011 29.85 841 24.83 2.5 36.4 58 -5 23
22:05 1012 29.88 841 24.83 2.4 36.4 59 -4.8 23.4
22:10 1012 29.88 841 24.83 2.4 36.4 58 -5 23
22:15 1012 29.88 841 24.83 2.4 36.4 58 -5.1 22.9
22:20 1012 29.88 841 24.83 2.4 36.3 59 -4.8 23.4
22:25 1012 29.88 841 24.83 2.3 36.2 60 -4.7 23.5
22:30 1012 29.88 841 24.83 2.3 36.1 59 -4.9 23.2
22:35 1012 29.88 841 24.83 2.3 36.1 56 -5.7 21.8
22:40 1012 29.88 841 24.83 2.4 36.3 51 -6.7 20
22:45 1012 29.88 842 24.86 2.5 36.5 51 -6.8 19.8
22:50 1013 29.91 842 24.86 2.5 36.5 50 -7 19.4
22:55 1013 29.91 842 24.86 2.5 36.4 49 -7.2 19
23:00 1013 29.91 842 24.86 2.4 36.4 49 -7.2 19.1
23:05 1013 29.91 842 24.86 2.4 36.3 50 -7 19.5
23:10 1013 29.91 842 24.86 2.3 36.2 51 -6.9 19.5
23:15 1013 29.91 842 24.86 2.3 36.1 51 -6.8 19.8
23:20 1013 29.91 842 24.86 2.3 36.1 51 -6.8 19.7
23:25 1013 29.91 842 24.86 2.2 36 50 -7.1 19.2
23:30 1013 29.91 842 24.86 2.2 36 51 -6.8 19.7
23:35 1013 29.91 842 24.86 2.2 36 49 -7.4 18.7
23:40 1013 29.91 842 24.86 2.2 36 49 -7.3 18.8
23:45 1013 29.91 842 24.86 2.2 35.9 50 -7.2 19
23:50 1013 29.91 843 24.89 2.2 35.9 50 -7.3 18.8
23:55 1013 29.91 843 24.89 2.1 35.8 50 -7.4 18.7
24:00 1013 29.91 843 24.89 2.1 35.8 51 -7 19.4